createdAt,value
2018-12-27T00:02:54.980Z,8.27
2018-12-27T00:07:56.575Z,7.90
2018-12-27T00:12:57.679Z,7.13
2018-12-27T00:17:58.772Z,5.70
2018-12-27T00:22:59.869Z,4.93
2018-12-27T00:28:00.971Z,5.03
2018-12-27T00:33:03.271Z,5.17
2018-12-27T00:38:04.764Z,4.63
2018-12-27T00:43:05.913Z,6.47
2018-12-27T00:48:07.091Z,6.63
2018-12-27T00:53:08.187Z,7.60
2018-12-27T00:58:09.308Z,7.90
2018-12-27T01:03:11.333Z,6.47
2018-12-27T01:08:12.817Z,7.77
2018-12-27T01:13:13.908Z,7.17
2018-12-27T01:18:14.994Z,5.00
2018-12-27T01:23:16.102Z,5.87
2018-12-27T01:28:17.355Z,5.17
2018-12-27T01:33:19.018Z,4.47
2018-12-27T01:38:20.231Z,3.37
2018-12-27T01:43:21.334Z,5.53
2018-12-27T01:48:22.447Z,5.10
2018-12-27T01:53:23.535Z,5.77
2018-12-27T01:58:24.651Z,5.10
2018-12-27T02:03:26.615Z,4.33
2018-12-27T02:08:27.936Z,4.00
2018-12-27T02:13:29.030Z,3.53
2018-12-27T02:18:30.123Z,3.10
2018-12-27T02:23:31.215Z,3.43
2018-12-27T02:28:32.435Z,2.70
2018-12-27T02:33:35.564Z,2.83
2018-12-27T02:38:36.564Z,3.17
2018-12-27T02:43:37.769Z,3.57
2018-12-27T02:48:38.871Z,4.07
2018-12-27T02:53:39.971Z,4.90
2018-12-27T02:58:41.090Z,4.10
2018-12-27T03:03:43.970Z,3.70
2018-12-27T03:08:45.186Z,4.40
2018-12-27T03:13:46.279Z,5.47
2018-12-27T03:18:47.385Z,4.83
2018-12-27T03:23:48.468Z,3.87
2018-12-27T03:28:49.583Z,3.53
2018-12-27T03:33:52.729Z,3.43
2018-12-27T03:38:53.684Z,3.83
2018-12-27T03:43:54.776Z,2.90
2018-12-27T03:48:55.896Z,1.90
2018-12-27T03:53:56.986Z,2.93
2018-12-27T03:58:58.095Z,1.97
2018-12-27T04:04:01.493Z,1.77
2018-12-27T04:09:03.896Z,2.00
2018-12-27T04:14:04.990Z,2.20
2018-12-27T04:19:06.097Z,2.00
2018-12-27T04:24:07.591Z,2.20
2018-12-27T04:29:08.716Z,2.00
2018-12-27T04:34:09.925Z,2.40
2018-12-27T04:39:11.112Z,2.10
2018-12-27T04:44:12.314Z,2.10
2018-12-27T04:49:13.431Z,2.97
2018-12-27T04:54:14.537Z,2.40
2018-12-27T04:59:15.751Z,2.17
2018-12-27T05:04:18.321Z,1.80
2018-12-27T05:09:19.744Z,1.90
2018-12-27T05:14:20.861Z,1.70
2018-12-27T05:19:21.954Z,1.60
2018-12-27T05:24:23.066Z,1.90
2018-12-27T05:29:24.271Z,2.10
2018-12-27T05:34:26.392Z,2.00
2018-12-27T05:39:27.864Z,3.60
2018-12-27T05:44:28.967Z,2.47
2018-12-27T05:49:30.062Z,2.17
2018-12-27T05:54:31.159Z,1.50
2018-12-27T05:59:32.311Z,1.60
2018-12-27T06:04:34.109Z,1.40
2018-12-27T06:09:35.423Z,1.33
2018-12-27T06:14:36.535Z,1.70
2018-12-27T06:19:37.623Z,2.50
2018-12-27T06:24:38.722Z,2.80
2018-12-27T06:29:39.823Z,3.40
2018-12-27T06:34:41.431Z,3.77
2018-12-27T06:39:43.034Z,3.23
2018-12-27T06:44:44.154Z,4.63
2018-12-27T06:49:45.353Z,4.00
2018-12-27T06:54:48.958Z,4.57
2018-12-27T06:59:50.103Z,4.07
2018-12-27T07:04:51.198Z,3.20
2018-12-27T07:09:52.291Z,4.00
2018-12-27T07:14:53.392Z,4.23
2018-12-27T07:19:54.487Z,3.10
2018-12-27T07:24:55.569Z,5.00
2018-12-27T07:29:56.691Z,9.83
2018-12-27T07:34:57.812Z,12.13
2018-12-27T07:39:59.006Z,11.53
2018-12-27T07:45:00.224Z,10.33
2018-12-27T07:50:01.423Z,11.27
2018-12-27T07:55:03.536Z,10.80
2018-12-27T08:00:05.174Z,12.30
2018-12-27T08:05:06.454Z,11.00
2018-12-27T08:10:07.563Z,10.73
2018-12-27T08:15:08.878Z,12.83
2018-12-27T08:20:09.967Z,11.80
2018-12-27T08:25:11.076Z,9.97
2018-12-27T08:30:14.099Z,12.87
2018-12-27T08:35:15.220Z,10.77
2018-12-27T08:40:16.315Z,9.30
2018-12-27T08:45:17.424Z,8.33
2018-12-27T08:50:18.519Z,7.33
2018-12-27T08:55:19.763Z,7.17
2018-12-27T09:00:21.012Z,7.77
2018-12-27T09:05:22.104Z,9.13
2018-12-27T09:10:23.214Z,10.07
2018-12-27T09:15:24.314Z,11.63
2018-12-27T09:20:25.410Z,11.03
2018-12-27T09:25:26.514Z,10.83
2018-12-27T09:30:27.635Z,9.13
2018-12-27T09:35:28.754Z,8.50
2018-12-27T09:40:29.984Z,8.77
2018-12-27T09:45:31.271Z,8.50
2018-12-27T09:50:32.375Z,9.63
2018-12-27T09:55:33.464Z,9.40
2018-12-27T10:00:34.595Z,9.60
2018-12-27T10:05:35.694Z,10.10
2018-12-27T10:10:36.796Z,9.80
2018-12-27T10:15:37.935Z,10.07
2018-12-27T10:20:39.104Z,10.30
2018-12-27T10:25:40.207Z,10.90
2018-12-27T10:30:41.602Z,11.70
2018-12-27T10:35:42.795Z,11.37
2018-12-27T10:40:43.892Z,9.57
2018-12-27T10:45:44.998Z,10.50
2018-12-27T10:50:46.089Z,10.30
2018-12-27T10:55:47.191Z,10.37
2018-12-27T11:00:49.409Z,10.30
2018-12-27T11:05:50.703Z,11.30
2018-12-27T11:10:54.584Z,11.73
2018-12-27T11:15:55.716Z,12.63
2018-12-27T11:20:56.816Z,13.00
2018-12-27T11:25:57.919Z,11.27
2018-12-27T11:30:59.115Z,13.17
2018-12-27T11:36:00.222Z,13.50
2018-12-27T11:41:01.338Z,13.57
2018-12-27T11:46:02.456Z,11.73
2018-12-27T11:51:03.556Z,10.23
2018-12-27T11:56:04.661Z,11.53
2018-12-27T12:01:05.920Z,11.50
2018-12-27T12:06:07.036Z,13.30
2018-12-27T12:11:08.289Z,13.87
2018-12-27T12:16:09.548Z,14.13
2018-12-27T12:21:10.759Z,12.70
2018-12-27T12:26:11.952Z,12.33
2018-12-27T12:31:13.073Z,11.13
2018-12-27T12:36:14.182Z,9.37
2018-12-27T12:41:15.409Z,7.20
2018-12-27T12:46:16.598Z,7.20
2018-12-27T12:51:17.792Z,10.60
2018-12-27T12:56:18.995Z,9.27
2018-12-27T13:01:20.260Z,9.23
2018-12-27T13:06:21.365Z,9.33
2018-12-27T13:11:22.459Z,9.73
2018-12-27T13:16:23.572Z,10.93
2018-12-27T13:21:24.679Z,11.17
2018-12-27T13:26:25.874Z,15.33
2018-12-27T13:31:27.011Z,12.37
2018-12-27T13:36:28.140Z,11.20
2018-12-27T13:41:29.238Z,12.93
2018-12-27T13:46:30.426Z,12.03
2018-12-27T13:51:31.575Z,11.93
2018-12-27T13:56:32.699Z,13.73
2018-12-27T14:01:33.846Z,15.70
2018-12-27T14:06:35.028Z,17.33
2018-12-27T14:11:36.136Z,17.03
2018-12-27T14:16:37.251Z,21.30
2018-12-27T14:21:38.748Z,28.70
2018-12-27T14:26:39.875Z,19.00
2018-12-27T14:31:40.974Z,13.80
2018-12-27T14:36:42.069Z,13.07
2018-12-27T14:41:43.165Z,12.97
2018-12-27T14:46:44.288Z,15.70
2018-12-27T14:51:45.472Z,15.77
2018-12-27T14:56:46.577Z,16.97
2018-12-27T15:01:47.719Z,13.50
2018-12-27T15:06:48.902Z,11.43
2018-12-27T15:11:50.221Z,11.87
2018-12-27T15:16:51.320Z,11.23
2018-12-27T15:21:52.414Z,14.80
2018-12-27T15:26:53.513Z,14.07
2018-12-27T15:31:54.639Z,21.20
2018-12-27T15:36:55.752Z,26.33
2018-12-27T15:41:56.846Z,19.63
2018-12-27T15:46:57.956Z,21.50
2018-12-27T15:51:59.051Z,17.67
2018-12-27T15:57:00.176Z,15.23
2018-12-27T16:02:01.312Z,12.77
2018-12-27T16:07:02.745Z,13.50
2018-12-27T16:12:03.856Z,15.83
2018-12-27T16:17:04.984Z,21.73
2018-12-27T16:22:06.091Z,22.53
2018-12-27T16:27:08.381Z,22.23
2018-12-27T16:32:09.714Z,22.03
2018-12-27T16:37:10.847Z,28.13
2018-12-27T16:42:12.323Z,33.27
2018-12-27T16:47:13.423Z,25.30
2018-12-27T16:52:14.529Z,18.93
2018-12-27T16:57:19.879Z,17.73
2018-12-27T17:02:19.483Z,17.13
2018-12-27T17:07:20.683Z,23.47
2018-12-27T17:12:21.783Z,22.57
2018-12-27T17:17:22.893Z,17.47
2018-12-27T17:22:23.992Z,18.37
2018-12-27T17:27:27.004Z,15.97
2018-12-27T17:32:28.217Z,14.60
2018-12-27T17:37:29.669Z,14.13
2018-12-27T17:42:30.815Z,13.87
2018-12-27T17:47:31.905Z,18.33
2018-12-27T17:52:33.009Z,16.17
2018-12-27T17:57:34.134Z,16.33
2018-12-27T18:02:35.242Z,16.67
2018-12-27T18:07:36.419Z,15.57
2018-12-27T18:12:37.683Z,17.13
2018-12-27T18:17:38.839Z,23.60
2018-12-27T18:22:40.158Z,21.07
2018-12-27T18:27:41.357Z,21.37
2018-12-27T18:32:42.533Z,22.70
2018-12-27T18:37:43.725Z,19.33
2018-12-27T18:42:44.844Z,17.90
2018-12-27T18:47:45.951Z,15.53
2018-12-27T18:52:47.057Z,19.03
2018-12-27T18:57:48.168Z,19.73
2018-12-27T19:02:49.319Z,15.87
2018-12-27T19:07:51.475Z,15.47
2018-12-27T19:13:06.991Z,16.50
2018-12-27T19:18:14.451Z,15.10
2018-12-27T19:23:15.538Z,14.87
2018-12-27T19:28:16.684Z,14.77
2018-12-27T19:33:17.817Z,15.80
2018-12-27T19:38:19.084Z,20.10
2018-12-27T19:43:20.238Z,18.30
2018-12-27T19:48:21.413Z,25.87
2018-12-27T19:53:22.614Z,24.87
2018-12-27T19:58:23.753Z,16.63
2018-12-27T20:03:24.903Z,15.07
2018-12-27T20:08:26.176Z,12.80
2018-12-27T20:13:27.287Z,13.10
2018-12-27T20:18:28.383Z,23.60
2018-12-27T20:23:29.500Z,15.17
2018-12-27T20:28:30.613Z,17.13
2018-12-27T20:33:31.854Z,16.63
2018-12-27T20:38:33.036Z,19.80
2018-12-27T20:43:34.138Z,22.97
2018-12-27T20:48:35.283Z,20.30
2018-12-27T20:53:36.382Z,18.87
2018-12-27T20:58:37.498Z,18.17
2018-12-27T21:03:38.608Z,19.20
2018-12-27T21:08:39.744Z,17.63
2018-12-27T21:13:41.067Z,17.07
2018-12-27T21:18:42.180Z,16.90
2018-12-27T21:23:43.312Z,13.83
2018-12-27T21:28:44.417Z,13.33
2018-12-27T21:33:45.551Z,12.83
2018-12-27T21:38:46.678Z,17.27
2018-12-27T21:43:47.771Z,17.27
2018-12-27T21:48:48.903Z,15.27
2018-12-27T21:53:50.006Z,13.00
2018-12-27T21:58:51.114Z,14.70
2018-12-27T22:03:52.249Z,13.67
2018-12-27T22:08:53.360Z,12.27
2018-12-27T22:13:54.463Z,11.00
2018-12-27T22:18:55.563Z,16.03
2018-12-27T22:23:59.032Z,14.70
2018-12-27T22:29:00.164Z,15.80
2018-12-27T22:34:01.283Z,28.57
2018-12-27T22:39:05.007Z,20.23
2018-12-27T22:44:06.087Z,16.93
2018-12-27T22:49:07.293Z,17.53
2018-12-27T22:54:08.388Z,15.90
2018-12-27T22:59:09.482Z,14.97
2018-12-27T23:04:10.734Z,14.97
2018-12-27T23:09:11.824Z,16.83
2018-12-27T23:14:12.934Z,12.57
2018-12-27T23:19:14.032Z,10.27
2018-12-27T23:24:15.140Z,10.10
2018-12-27T23:29:16.253Z,9.50
2018-12-27T23:34:17.360Z,9.13
2018-12-27T23:39:18.454Z,9.10
2018-12-27T23:44:19.554Z,9.57
2018-12-27T23:49:20.668Z,10.93
2018-12-27T23:54:21.760Z,10.07
2018-12-27T23:59:22.855Z,9.40
